Time;durP1;ratioP1;P1;durP2;ratioP2;P2;SDS_P1;SDS_P2;PMS_P1;PMS_P2;Temp;Humidity;BMP_temperature;BMP_pressure;BME280_temperature;BME280_humidity;BME280_pressure;Samples;Min_cycle;Max_cycle;Signal;HPM_P1;HPM_P2
2022/01/07 00:02:06;;;;;;;10.00;4.82;;;;;;;2.44;77.96;101394.81;5034996;28;20386;-84
2022/01/07 00:04:32;;;;;;;11.10;4.80;;;;;;;2.47;77.59;101394.06;5035397;28;20386;-85
2022/01/07 00:06:57;;;;;;;11.35;4.65;;;;;;;2.43;76.56;101385.41;5034274;28;20045;-86
2022/01/07 00:09:36;;;;;;;11.63;5.30;;;;;;;2.49;77.71;101387.25;5034860;28;20474;-85
2022/01/07 00:12:04;;;;;;;12.90;4.90;;;;;;;2.47;77.66;101386.38;5034493;28;20024;-85
2022/01/07 00:14:47;;;;;;;9.32;4.30;;;;;;;2.46;77.96;101387.19;5034350;28;20021;-86
2022/01/07 00:17:12;;;;;;;12.38;4.70;;;;;;;2.50;78.35;101373.63;5034953;28;20029;-85
2022/01/07 00:19:53;;;;;;;11.90;4.70;;;;;;;2.42;78.36;101360.59;5048081;28;20028;-85
2022/01/07 00:22:18;;;;;;;12.07;4.82;;;;;;;2.39;77.94;101362.22;5054673;28;20033;-85
2022/01/07 00:24:43;;;;;;;12.07;5.22;;;;;;;2.34;78.29;101356.13;5054505;28;20036;-85
2022/01/07 00:27:31;;;;;;;12.50;5.07;;;;;;;2.37;78.23;101361.31;5054225;28;20111;-85
2022/01/07 00:29:56;;;;;;;14.52;5.35;;;;;;;2.34;78.50;101353.56;5054219;28;20025;-85
2022/01/07 00:32:37;;;;;;;10.95;4.90;;;;;;;2.35;78.67;101357.88;5054217;28;20025;-84
2022/01/07 00:35:04;;;;;;;14.10;5.13;;;;;;;2.31;78.90;101356.88;5053882;28;20055;-85
2022/01/07 00:37:29;;;;;;;11.80;5.10;;;;;;;2.27;78.93;101343.13;5054327;28;20020;-85
2022/01/07 00:40:10;;;;;;;12.07;5.10;;;;;;;2.23;79.62;101337.88;5054206;28;20373;-85
2022/01/07 00:42:36;;;;;;;14.50;4.95;;;;;;;2.30;78.60;101343.22;5053251;28;20024;-85
2022/01/07 00:47:53;;;;;;;12.93;4.65;;;;;;;2.22;79.69;101316.56;5053877;28;20057;-85
2022/01/07 00:50:19;;;;;;;;;;;;;;;2.20;80.07;101319.88;5034718;28;20049;-85
2022/01/07 00:52:45;;;;;;;;;;;;;;;2.16;80.25;101314.69;5034404;28;19913;-85
2022/01/07 00:55:29;;;;;;;14.40;4.97;;;;;;;2.17;79.72;101302.75;5033565;28;20050;-85
2022/01/07 00:57:55;;;;;;;10.15;4.68;;;;;;;2.19;79.27;101297.69;5033656;28;20021;-85
2022/01/07 01:00:23;;;;;;;11.17;4.87;;;;;;;2.13;80.21;101288.16;5034118;28;20038;-85
2022/01/07 01:03:07;;;;;;;12.80;4.85;;;;;;;2.07;80.66;101283.72;5039915;28;20082;-85
2022/01/07 01:05:32;;;;;;;8.55;4.13;;;;;;;2.11;80.33;101288.09;5053724;28;20102;-86
2022/01/07 01:07:58;;;;;;;12.07;4.60;;;;;;;2.21;79.91;101278.97;5053377;28;20140;-85
2022/01/07 01:10:25;;;;;;;9.82;4.57;;;;;;;2.13;80.63;101288.16;5053039;28;20060;-85
2022/01/07 01:13:01;;;;;;;11.77;4.63;;;;;;;2.11;80.69;101282.09;5053610;28;20095;-85
2022/01/07 01:15:27;;;;;;;9.98;4.60;;;;;;;2.22;80.28;101267.88;5053833;28;20413;-85
2022/01/07 01:17:55;;;;;;;11.85;4.70;;;;;;;2.12;80.00;101269.34;5052516;28;20025;-85
2022/01/07 01:20:21;;;;;;;11.25;4.57;;;;;;;2.18;79.89;101260.94;5053312;28;20036;-85
2022/01/07 01:22:59;;;;;;;11.75;4.30;;;;;;;2.14;80.21;101259.13;5053276;28;20052;-85
2022/01/07 01:25:24;;;;;;;12.98;4.70;;;;;;;2.14;79.98;101260.00;5052730;28;20091;-85
2022/01/07 01:27:49;;;;;;;12.73;4.80;;;;;;;2.21;79.67;101263.59;5053384;28;20032;-85
2022/01/07 01:30:32;;;;;;;10.63;4.32;;;;;;;2.21;78.95;101253.34;5052862;28;20393;-85
2022/01/07 01:32:58;;;;;;;11.30;4.35;;;;;;;2.13;79.92;101232.66;5052752;28;20355;-85
2022/01/07 01:35:24;;;;;;;9.95;4.10;;;;;;;2.19;79.75;101246.47;5053364;28;20377;-85
2022/01/07 01:38:03;;;;;;;9.20;3.95;;;;;;;2.13;80.41;101237.78;5052418;28;20025;-85
2022/01/07 01:40:28;;;;;;;7.95;3.95;;;;;;;2.21;79.32;101240.53;5053243;28;20098;-84
2022/01/07 01:42:54;;;;;;;9.73;4.18;;;;;;;2.21;79.01;101237.97;5052825;28;20529;-85
2022/01/07 01:45:20;;;;;;;9.70;3.92;;;;;;;2.22;79.52;101239.72;5052673;28;20021;-85
2022/01/07 01:47:46;;;;;;;11.15;4.47;;;;;;;2.25;79.53;101234.66;5052949;28;20389;-85
2022/01/07 01:50:18;;;;;;;10.18;4.22;;;;;;;2.20;78.85;101218.31;5052915;28;20037;-85
2022/01/07 01:52:48;;;;;;;10.30;4.10;;;;;;;2.36;79.58;101216.16;5034587;28;20045;-85
2022/01/07 01:55:15;;;;;;;11.23;4.10;;;;;;;2.29;78.76;101210.00;5033279;28;20045;-85
2022/01/07 01:57:41;;;;;;;9.80;3.88;;;;;;;2.29;79.46;101203.19;5031859;28;20033;-85
2022/01/07 02:00:15;;;;;;;7.85;3.90;;;;;;;2.28;79.11;101200.59;5031700;28;20417;-85
2022/01/07 02:02:40;;;;;;;7.32;3.50;;;;;;;2.26;78.80;101192.84;5032647;28;20485;-85
2022/01/07 02:05:06;;;;;;;8.65;3.47;;;;;;;2.24;79.67;101188.53;5032932;28;20033;-85
2022/01/07 02:07:35;;;;;;;8.13;3.30;;;;;;;2.27;79.32;101191.16;5032277;28;20493;-85
2022/01/07 02:10:14;;;;;;;10.05;3.90;;;;;;;2.30;79.28;101179.31;5024089;28;20061;-85
2022/01/07 02:12:41;;;;;;;7.43;3.50;;;;;;;2.34;79.38;101190.47;5031602;28;20018;-85
2022/01/07 02:15:07;;;;;;;7.82;3.67;;;;;;;2.36;78.63;101196.50;5033081;28;20030;-85
2022/01/07 02:17:33;;;;;;;5.43;3.60;;;;;;;2.34;79.25;101194.75;5032088;28;20500;-85
2022/01/07 02:20:08;;;;;;;8.40;3.22;;;;;;;2.31;79.40;101188.72;5031432;28;20037;-85
2022/01/07 02:22:33;;;;;;;7.35;3.08;;;;;;;2.35;79.07;101178.56;5032692;28;20573;-85
2022/01/07 02:24:59;;;;;;;7.13;3.38;;;;;;;2.46;78.88;101189.91;5032207;28;20038;-85
2022/01/07 02:27:24;;;;;;;7.68;3.10;;;;;;;2.33;79.34;101172.53;5032373;28;20029;-85
2022/01/07 02:30:03;;;;;;;6.30;3.15;;;;;;;2.33;79.48;101173.38;5032533;28;20033;-85
2022/01/07 02:32:28;;;;;;;6.55;3.03;;;;;;;2.36;80.03;101185.41;5032502;28;20079;-85
2022/01/07 02:34:53;;;;;;;7.95;3.10;;;;;;;2.35;80.04;101178.56;5031805;28;20478;-85
2022/01/07 02:37:18;;;;;;;11.52;3.78;;;;;;;2.30;80.59;101179.31;5032598;28;20029;-84
2022/01/07 02:39:45;;;;;;;8.13;3.30;;;;;;;2.27;81.96;101170.69;5032349;28;20029;-85
2022/01/07 02:42:23;;;;;;;7.30;3.22;;;;;;;2.19;81.55;101165.38;5032867;28;20386;-85
2022/01/07 02:44:49;;;;;;;7.18;3.20;;;;;;;2.17;81.81;101167.03;5032291;28;20025;-84
2022/01/07 02:47:16;;;;;;;8.20;3.00;;;;;;;2.12;82.63;101166.91;5032612;28;20489;-85
2022/01/07 02:49:41;;;;;;;6.63;2.95;;;;;;;2.11;82.12;101166.88;5031559;28;20433;-85
2022/01/07 02:52:21;;;;;;;10.05;3.63;;;;;;;2.10;83.79;101167.72;5032495;28;20037;-85
2022/01/07 02:54:47;;;;;;;7.63;3.40;;;;;;;2.08;83.03;101169.34;5031503;28;20038;-84
2022/01/07 02:57:12;;;;;;;10.23;3.80;;;;;;;2.08;83.40;101161.69;5033587;28;20040;-85
2022/01/07 02:59:56;;;;;;;7.13;3.10;;;;;;;2.06;83.71;101158.22;5032681;28;20028;-85
2022/01/07 03:02:21;;;;;;;8.00;3.20;;;;;;;2.00;83.67;101148.69;5031477;28;20402;-85
2022/01/07 03:04:46;;;;;;;7.45;3.15;;;;;;;2.00;83.29;101139.31;5031790;28;20030;-85
2022/01/07 03:07:11;;;;;;;5.50;3.20;;;;;;;1.99;83.77;101144.38;5032603;28;20033;-85
2022/01/07 03:09:49;;;;;;;7.65;2.83;;;;;;;1.97;84.13;101139.25;5042425;28;20419;-85
2022/01/07 03:12:14;;;;;;;5.85;3.00;;;;;;;1.94;83.76;101134.03;5055635;28;20120;-85
2022/01/07 03:14:39;;;;;;;7.47;3.40;;;;;;;1.85;84.07;101134.69;5055752;28;20021;-85
2022/01/07 03:17:05;;;;;;;5.35;3.00;;;;;;;1.84;84.51;101121.84;5055191;28;20358;-84
2022/01/07 03:19:42;;;;;;;7.80;3.20;;;;;;;1.84;85.75;101132.06;5055688;28;20024;-84
2022/01/07 03:22:08;;;;;;;6.65;3.10;;;;;;;1.81;84.26;101126.88;5045754;28;20040;-85
2022/01/07 03:24:33;;;;;;;10.57;3.65;;;;;;;1.74;85.82;101113.09;5034842;28;20053;-85
2022/01/07 03:26:59;;;;;;;7.07;3.20;;;;;;;1.67;85.99;101119.72;5059622;22;20057;-84
2022/01/07 03:29:39;;;;;;;4.22;2.80;;;;;;;1.60;86.17;101109.28;5037384;28;20437;-85
2022/01/07 03:32:05;;;;;;;7.10;3.13;;;;;;;1.58;86.18;101114.34;5055066;28;20067;-85
2022/01/07 03:34:30;;;;;;;6.05;3.17;;;;;;;1.62;84.92;101116.19;5055530;28;20052;-85
2022/01/07 03:36:56;;;;;;;7.18;3.05;;;;;;;1.63;85.21;101125.59;5054617;28;20017;-85
2022/01/07 03:39:21;;;;;;;4.63;3.00;;;;;;;1.61;85.15;101113.59;5055476;28;20029;-85
2022/01/07 03:42:02;;;;;;;5.43;2.97;;;;;;;1.54;86.79;101102.31;5055134;28;20056;-85
2022/01/07 03:44:27;;;;;;;7.13;3.08;;;;;;;1.55;86.95;101109.19;5054869;28;20033;-85
2022/01/07 03:46:52;;;;;;;8.15;3.22;;;;;;;1.54;86.54;101105.75;5055292;28;20024;-85
2022/01/07 03:49:18;;;;;;;8.02;3.30;;;;;;;1.58;87.67;101106.69;5055314;28;20020;-85
2022/01/07 03:52:01;;;;;;;5.55;2.90;;;;;;;1.59;86.04;101110.97;5054770;28;20064;-85
2022/01/07 03:54:27;;;;;;;4.70;2.90;;;;;;;1.58;85.55;101096.44;5055165;28;20031;-84
2022/01/07 03:56:52;;;;;;;4.90;2.70;;;;;;;1.59;85.81;101087.94;5054438;28;20021;-85
2022/01/07 03:59:17;;;;;;;6.57;2.67;;;;;;;1.58;86.89;101085.34;5054567;28;20067;-85
2022/01/07 04:01:58;;;;;;;6.15;2.80;;;;;;;1.56;86.47;101069.97;5054629;28;20144;-85
2022/01/07 04:04:23;;;;;;;8.00;3.20;;;;;;;1.56;86.77;101075.09;5054889;28;20079;-85
2022/01/07 04:06:48;;;;;;;3.60;2.60;;;;;;;1.59;86.99;101074.31;5054208;28;20401;-85
2022/01/07 04:09:14;;;;;;;8.65;3.15;;;;;;;1.61;87.15;101072.66;5054971;28;20035;-86
2022/01/07 04:11:54;;;;;;;4.65;2.88;;;;;;;1.60;87.92;101073.47;5054779;28;20025;-84
2022/01/07 04:14:19;;;;;;;6.57;3.30;;;;;;;1.64;86.55;101060.78;5055037;28;20021;-85
2022/01/07 04:16:45;;;;;;;8.07;3.38;;;;;;;1.63;87.33;101065.88;5054428;28;20036;-85
2022/01/07 04:19:10;;;;;;;4.50;3.28;;;;;;;1.62;87.10;101065.00;5054109;28;20021;-85
2022/01/07 04:21:36;;;;;;;5.88;3.20;;;;;;;1.67;87.20;101078.78;5053697;28;20029;-85
2022/01/07 04:24:13;;;;;;;6.95;3.30;;;;;;;1.68;86.80;101064.28;5047340;28;20063;-86
2022/01/07 04:26:38;;;;;;;6.60;3.22;;;;;;;1.65;87.76;101070.22;5053736;28;20069;-85
2022/01/07 04:29:04;;;;;;;6.00;3.20;;;;;;;1.68;88.10;101071.97;5054943;28;20112;-85
2022/01/07 04:31:29;;;;;;;4.93;3.10;;;;;;;1.70;87.86;101080.56;5054573;28;20125;-85
2022/01/07 04:34:12;;;;;;;6.70;3.20;;;;;;;1.67;88.46;101071.13;5053377;28;20052;-86
2022/01/07 04:36:38;;;;;;;6.38;3.28;;;;;;;1.69;88.57;101066.88;5054440;28;20376;-85
2022/01/07 04:39:03;;;;;;;7.20;3.53;;;;;;;1.78;88.18;101067.94;5054268;28;20124;-85
2022/01/07 04:41:44;;;;;;;7.00;3.33;;;;;;;1.67;87.93;101062.56;5049862;28;20037;-85
2022/01/07 04:44:10;;;;;;;4.20;2.95;;;;;;;1.72;87.90;101066.09;5054177;28;20116;-85
2022/01/07 04:46:35;;;;;;;5.70;3.10;;;;;;;1.77;87.94;101069.63;5054155;28;20102;-86
2022/01/07 04:49:00;;;;;;;4.55;3.00;;;;;;;1.79;88.78;101065.41;5053000;28;20037;-85
2022/01/07 04:51:42;;;;;;;6.60;3.25;;;;;;;1.82;88.81;101062.94;5054087;28;20047;-85
2022/01/07 04:54:07;;;;;;;5.65;3.00;;;;;;;1.86;87.72;101061.31;5053520;28;20033;-85
2022/01/07 04:56:32;;;;;;;8.07;3.30;;;;;;;1.84;87.71;101056.16;5054194;28;20048;-86
2022/01/07 04:58:58;;;;;;;6.00;3.40;;;;;;;1.91;87.37;101054.63;5053813;28;20521;-85
2022/01/07 05:01:23;;;;;;;6.00;3.50;;;;;;;1.91;87.71;101051.19;5053201;28;20143;-85
2022/01/07 05:04:05;;;;;;;5.13;3.25;;;;;;;1.94;88.18;101057.25;5053711;28;20374;-85
2022/01/07 05:09:22;;;;;;;4.95;3.30;;;;;;;1.97;89.33;101056.47;5053458;28;20029;-85
2022/01/07 05:11:50;;;;;;;6.82;3.70;;;;;;;1.95;89.49;101043.63;5053789;28;20033;-85
2022/01/07 05:14:15;;;;;;;6.13;3.60;;;;;;;1.97;89.15;101046.22;5053947;28;20024;-85
2022/01/07 05:16:58;;;;;;;4.88;3.30;;;;;;;2.02;88.56;101033.53;5052832;28;20509;-86
2022/01/07 05:19:24;;;;;;;4.75;3.50;;;;;;;1.98;88.74;101024.88;5053769;28;20024;-86
2022/01/07 05:21:49;;;;;;;6.28;3.30;;;;;;;1.99;88.88;101024.06;5053383;28;20480;-86
2022/01/07 05:24:31;;;;;;;8.50;3.67;;;;;;;2.03;88.48;101030.16;5052381;28;20045;-86
2022/01/07 05:26:59;;;;;;;7.95;3.97;;;;;;;2.00;89.38;101028.34;5050650;28;20045;-86
2022/01/07 05:29:25;;;;;;;7.43;3.88;;;;;;;2.07;88.51;101026.81;5052714;28;20113;-86
2022/01/07 05:31:51;;;;;;;8.18;4.05;;;;;;;2.10;88.66;101021.75;5080032;22;20049;-86
2022/01/07 05:34:28;;;;;;;8.57;4.30;;;;;;;2.12;89.45;101033.75;5068592;28;20447;-86
2022/01/07 05:36:58;;;;;;;6.38;4.05;;;;;;;2.09;88.84;101026.00;5071123;28;20047;-86
2022/01/07 05:39:47;;;;;;;7.35;4.25;;;;;;;2.14;89.30;101024.41;5055158;28;20028;-86
2022/01/07 05:42:35;;;;;;;7.80;4.28;;;;;;;2.17;89.98;101026.19;5072761;28;20200;-86
2022/01/07 05:45:05;;;;;;;11.98;4.97;;;;;;;2.19;90.72;101027.09;5072000;28;20028;-85
2022/01/07 05:47:32;;;;;;;10.15;5.22;;;;;;;2.18;90.61;101020.22;5073387;28;20056;-86
2022/01/07 05:50:15;;;;;;;9.40;4.70;;;;;;;2.21;90.90;101025.44;5060336;28;20036;-86
2022/01/07 05:52:41;;;;;;;8.90;4.85;;;;;;;2.21;89.95;101020.31;5052635;28;20029;-86
2022/01/07 05:55:28;;;;;;;8.55;4.22;;;;;;;2.21;89.30;101012.63;5041356;28;20090;-86
2022/01/07 05:57:55;;;;;;;8.38;4.32;;;;;;;2.30;89.06;101025.63;5051514;28;20120;-86
2022/01/07 06:00:41;;;;;;;;;;;;;;;2.32;89.03;101020.53;5053362;28;20473;-86
2022/01/07 06:03:09;;;;;;;7.90;4.45;;;;;;;2.33;89.39;101014.56;5035269;28;19912;-85
2022/01/07 06:05:44;;;;;;;8.93;5.13;;;;;;;2.36;89.18;101017.19;5052106;28;20120;-86
2022/01/07 06:08:10;;;;;;;7.88;4.82;;;;;;;2.38;89.69;101027.47;5052848;28;20082;-86
2022/01/07 06:10:51;;;;;;;10.25;4.97;;;;;;;2.37;90.60;101021.50;5053067;28;20124;-86
2022/01/07 06:13:17;;;;;;;8.02;4.53;;;;;;;2.33;89.65;101014.56;5021413;28;20041;-86
2022/01/07 06:15:42;;;;;;;10.13;5.40;;;;;;;2.37;90.55;101020.63;5052337;28;20059;-85
2022/01/07 06:18:28;;;;;;;8.15;4.78;;;;;;;2.42;89.71;101024.16;5052595;28;20361;-86
2022/01/07 06:20:53;;;;;;;9.32;4.97;;;;;;;2.43;90.16;101025.88;5051582;28;20036;-86
2022/01/07 06:23:18;;;;;;;10.60;5.18;;;;;;;2.46;90.18;101029.38;5061205;28;20488;-86
2022/01/07 06:26:02;;;;;;;10.48;5.30;;;;;;;2.47;90.01;101028.53;5072080;28;20104;-86
2022/01/07 06:28:27;;;;;;;13.20;5.70;;;;;;;2.52;89.61;101022.66;5072780;28;20091;-86
2022/01/07 06:30:54;;;;;;;10.77;5.03;;;;;;;2.49;89.99;101025.16;5072267;28;20029;-86
2022/01/07 06:33:19;;;;;;;9.80;4.93;;;;;;;2.50;89.95;101029.44;5051939;28;20037;-86
2022/01/07 06:36:01;;;;;;;10.02;5.10;;;;;;;2.53;89.98;101020.13;5052426;28;20029;-85
2022/01/07 06:38:26;;;;;;;10.52;5.25;;;;;;;2.46;90.87;101016.56;5052720;28;20048;-86
2022/01/07 06:40:51;;;;;;;10.10;4.90;;;;;;;2.50;90.38;101019.19;5051667;28;20466;-86
2022/01/07 06:43:32;;;;;;;8.93;4.60;;;;;;;2.49;90.14;101028.56;5052834;28;20102;-86
2022/01/07 06:45:57;;;;;;;9.68;5.00;;;;;;;2.50;90.17;101020.03;5056651;28;20220;-86
2022/01/07 06:48:35;;;;;;;10.05;4.80;;;;;;;2.58;90.95;101026.22;5055857;28;20529;-86
2022/01/07 06:51:00;;;;;;;8.02;4.75;;;;;;;2.58;90.35;101015.97;5056248;28;20120;-85
2022/01/07 06:53:34;;;;;;;11.35;5.38;;;;;;;2.63;90.06;101028.88;5056653;28;20513;-86
2022/01/07 06:56:00;;;;;;;11.80;5.30;;;;;;;2.67;89.95;101030.63;5055524;28;20033;-86
2022/01/07 07:01:10;;;;;;;11.35;5.50;;;;;;;2.73;89.90;101024.78;5062560;22;20406;-86
2022/01/07 07:03:54;;;;;;;12.30;5.68;;;;;;;2.72;90.11;101010.22;5056252;28;20033;-86
2022/01/07 07:06:19;;;;;;;10.55;5.35;;;;;;;2.74;89.83;101018.81;5056265;28;20037;-86
2022/01/07 07:08:59;;;;;;;11.38;5.57;;;;;;;2.73;90.36;101028.22;5037536;28;20033;-85
2022/01/07 07:11:28;;;;;;;10.88;5.57;;;;;;;2.73;90.52;101032.47;5056352;28;20025;-86
2022/01/07 07:13:56;;;;;;;10.02;5.45;;;;;;;2.76;90.70;101040.22;5055925;28;20024;-86
2022/01/07 07:16:37;;;;;;;10.20;5.60;;;;;;;2.71;90.02;101017.06;5055237;28;20539;-86
2022/01/07 07:19:03;;;;;;;8.93;5.28;;;;;;;2.74;90.73;101032.50;5055991;28;20025;-86
2022/01/07 07:24:19;;;;;;;12.05;5.95;;;;;;;2.85;89.23;101042.97;5076115;28;20537;-83
2022/01/07 07:26:47;;;;;;;11.00;6.05;;;;;;;2.80;89.92;101042.03;5063310;28;20093;-85
2022/01/07 07:29:12;;;;;;;10.35;5.32;;;;;;;2.80;90.32;101042.03;5055031;28;20028;-84
2022/01/07 07:31:39;;;;;;;10.63;5.93;;;;;;;2.83;90.90;101039.50;5046197;28;20021;-83
2022/01/07 07:34:21;;;;;;;11.88;6.50;;;;;;;2.88;90.59;101042.16;5058202;28;20036;-84
2022/01/07 07:36:47;;;;;;;10.77;5.30;;;;;;;2.89;89.88;101039.63;5074273;28;20094;-83
2022/01/07 07:39:13;;;;;;;9.77;5.13;;;;;;;2.90;90.03;101033.69;5075543;28;20048;-83
2022/01/07 07:41:41;;;;;;;11.85;5.80;;;;;;;2.92;90.79;101044.84;5075251;28;20052;-83
2022/01/07 07:44:07;;;;;;;12.00;5.80;;;;;;;2.92;90.62;101032.00;5074882;28;20016;-83
2022/01/07 07:46:35;;;;;;;9.23;5.33;;;;;;;2.90;90.94;101018.28;5075557;28;20467;-83
2022/01/07 07:49:04;;;;;;;13.40;6.50;;;;;;;2.97;89.45;101018.41;5072527;28;20119;-83
2022/01/07 07:51:30;;;;;;;11.70;6.15;;;;;;;2.98;90.04;101018.44;5062384;28;20168;-84
2022/01/07 07:53:55;;;;;;;9.05;5.30;;;;;;;3.02;89.95;101016.78;5035058;28;20026;-83
2022/01/07 07:56:21;;;;;;;10.40;5.50;;;;;;;3.04;89.74;101025.38;5033863;28;20026;-83
2022/01/07 07:58:47;;;;;;;12.48;5.65;;;;;;;3.04;89.57;101026.25;5034641;28;20034;-82
2022/01/07 08:01:13;;;;;;;9.10;5.13;;;;;;;3.07;90.06;101035.69;5035324;28;20045;-83
2022/01/07 08:03:41;;;;;;;8.23;4.80;;;;;;;3.08;90.33;101029.72;5035269;28;20025;-83
2022/01/07 08:06:07;;;;;;;12.20;6.05;;;;;;;3.09;90.29;101034.00;5034037;28;20152;-83
2022/01/07 08:08:33;;;;;;;11.57;6.10;;;;;;;3.12;90.21;101031.50;5035356;28;20486;-83
2022/01/07 08:11:01;;;;;;;10.65;5.47;;;;;;;3.09;90.40;101023.75;5059597;28;20459;-83
2022/01/07 08:16:11;;;;;;;9.55;5.60;;;;;;;3.15;90.06;101011.06;5075255;28;20468;-85
2022/01/07 08:18:38;;;;;;;11.43;5.72;;;;;;;3.18;90.21;101010.25;5073863;28;20028;-84
2022/01/07 08:21:11;;;;;;;11.80;6.20;;;;;;;3.22;90.09;101023.16;5070091;28;20033;-83
2022/01/07 08:23:39;;;;;;;11.40;5.68;;;;;;;3.19;89.98;101007.69;5034677;28;20025;-83
2022/01/07 08:26:09;;;;;;;12.38;6.10;;;;;;;3.22;89.62;101005.19;5034396;28;20021;-86
2022/01/07 08:28:54;;;;;;;11.52;5.93;;;;;;;3.26;89.88;101008.66;5034835;28;20096;-85
2022/01/07 08:36:37;;;;;;;10.02;5.90;;;;;;;3.23;89.73;101009.50;5034948;28;20049;-78
2022/01/07 08:39:08;;;;;;;12.20;5.95;;;;;;;3.23;89.63;101019.75;5034177;28;20017;-85
2022/01/07 08:41:35;;;;;;;10.63;5.57;;;;;;;3.24;90.01;101011.22;5033875;28;20068;-83
2022/01/07 08:44:02;;;;;;;10.85;5.55;;;;;;;3.28;89.95;101011.25;5034199;28;20072;-83
2022/01/07 08:46:27;;;;;;;;;;;;;;;3.28;89.69;101012.13;5034051;28;20026;-82
2022/01/07 08:48:54;;;;;;;13.63;6.30;;;;;;;3.30;89.79;101022.41;5034291;28;19956;-83
2022/01/07 08:51:19;;;;;;;11.45;5.97;;;;;;;3.32;89.59;101026.72;5042495;28;20020;-83
2022/01/07 08:53:44;;;;;;;10.88;5.40;;;;;;;3.33;89.59;101022.47;5072455;28;20033;-83
2022/01/07 08:56:10;;;;;;;12.15;5.63;;;;;;;3.36;89.97;101025.94;5073529;28;20530;-83
2022/01/07 08:58:35;;;;;;;11.27;5.53;;;;;;;3.39;89.80;101023.44;5073849;28;20021;-83
2022/01/07 09:01:02;;;;;;;10.60;5.32;;;;;;;3.40;90.04;101040.56;5072733;28;20098;-83
2022/01/07 09:03:27;;;;;;;9.83;4.87;;;;;;;3.43;89.74;101039.75;5073469;28;20377;-81
2022/01/07 09:05:52;;;;;;;10.43;5.13;;;;;;;3.44;89.69;101033.78;5073376;28;20275;-84
2022/01/07 09:08:18;;;;;;;13.07;5.90;;;;;;;3.46;89.93;101021.84;5072971;28;20028;-84
2022/01/07 09:11:00;;;;;;;15.48;6.45;;;;;;;3.46;89.52;101023.53;5073509;28;20020;-84
2022/01/07 09:13:25;;;;;;;16.45;6.93;;;;;;;3.47;89.06;101010.75;5073629;28;20029;-84
2022/01/07 09:15:50;;;;;;;12.88;6.40;;;;;;;3.48;89.47;101019.28;5072707;28;20023;-84
2022/01/07 09:18:16;;;;;;;14.30;6.47;;;;;;;3.47;89.15;101015.88;5069786;28;20028;-84
2022/01/07 09:20:54;;;;;;;11.80;5.80;;;;;;;3.48;89.34;101016.72;5073361;28;20385;-84
2022/01/07 09:23:19;;;;;;;8.70;5.03;;;;;;;3.51;89.37;101021.91;5072816;28;20108;-84
2022/01/07 09:25:45;;;;;;;9.68;5.00;;;;;;;3.48;89.47;101003.91;5073287;28;20221;-83
2022/01/07 09:28:11;;;;;;;10.30;5.63;;;;;;;3.49;89.41;101014.19;5073512;28;20062;-83
2022/01/07 09:30:54;;;;;;;10.32;5.28;;;;;;;3.54;89.31;101017.69;5072836;28;20024;-84
2022/01/07 09:33:19;;;;;;;10.20;5.13;;;;;;;3.52;89.58;101018.53;5073186;28;20032;-84
2022/01/07 09:35:44;;;;;;;11.13;5.50;;;;;;;3.64;89.41;101025.53;5072352;28;20833;-84
2022/01/07 09:38:10;;;;;;;10.13;5.10;;;;;;;3.63;89.06;101014.44;5060496;28;20029;-83
2022/01/07 09:40:49;;;;;;;10.35;5.10;;;;;;;3.70;89.52;101015.38;5033279;28;20029;-84
2022/01/07 09:43:30;;;;;;;11.27;5.40;;;;;;;3.77;89.18;101008.66;5032780;28;20029;-85
2022/01/07 09:45:58;;;;;;;9.32;5.63;;;;;;;3.83;88.53;101009.56;5032778;28;20386;-85
2022/01/07 09:48:35;;;;;;;10.85;5.40;;;;;;;3.93;88.87;101009.75;5033297;28;20128;-86
2022/01/07 09:51:01;;;;;;;10.70;5.68;;;;;;;3.96;88.50;101007.19;5034505;28;20025;-84
2022/01/07 09:53:27;;;;;;;11.50;5.47;;;;;;;3.97;88.15;101009.81;5033419;28;20033;-84
2022/01/07 09:55:52;;;;;;;10.75;5.55;;;;;;;3.96;88.12;100999.50;5035270;28;20075;-85
2022/01/07 09:58:32;;;;;;;9.93;5.28;;;;;;;3.97;88.01;101017.50;5032545;28;20025;-85
2022/01/07 10:01:09;;;;;;;10.20;5.60;;;;;;;4.04;87.97;101008.19;5032967;28;20068;-87
2022/01/07 10:03:49;;;;;;;10.55;5.47;;;;;;;3.97;88.06;100991.84;5032341;28;20041;-84
2022/01/07 10:06:23;;;;;;;11.13;5.35;;;;;;;3.99;87.90;101000.44;5033125;28;20021;-85
2022/01/07 10:09:02;;;;;;;10.75;5.22;;;;;;;4.04;88.28;101000.50;5032665;28;20029;-86
2022/01/07 10:11:28;;;;;;;9.18;4.75;;;;;;;4.06;87.78;100996.22;5032407;28;20037;-84
2022/01/07 10:14:13;;;;;;;9.40;4.90;;;;;;;4.16;87.82;101010.94;5032553;28;20420;-85
2022/01/07 10:17:00;;;;;;;9.68;5.18;;;;;;;4.19;87.40;100999.84;5032773;28;20056;-85
2022/01/07 10:19:40;;;;;;;13.40;5.55;;;;;;;4.24;87.35;100998.16;5031695;28;20056;-85
2022/01/07 10:22:11;;;;;;;12.45;5.70;;;;;;;4.29;87.25;100993.09;5035748;28;20028;-86
2022/01/07 10:24:59;;;;;;;9.98;5.45;;;;;;;4.34;87.26;101001.72;5050193;28;20025;-86
2022/01/07 10:27:48;;;;;;;12.90;5.90;;;;;;;4.36;86.82;100992.34;5032745;28;20064;-86
2022/01/07 10:30:28;;;;;;;9.73;4.90;;;;;;;4.45;86.70;100992.47;5044107;28;20036;-85
2022/01/07 10:32:56;;;;;;;8.68;5.00;;;;;;;4.49;87.10;100980.50;5083847;22;20125;-88
2022/01/07 10:35:25;;;;;;;;;;;;;;;4.56;86.70;100981.44;5054662;28;20047;-88
2022/01/07 10:38:14;;;;;;;9.27;5.20;;;;;;;4.59;86.46;100971.19;5051933;28;19942;-87
2022/01/07 10:40:40;;;;;;;11.82;5.00;;;;;;;4.72;86.25;100991.06;5054395;28;20033;-89
2022/01/07 10:43:21;;;;;;;10.10;4.75;;;;;;;4.79;85.89;100972.28;5065224;28;20037;-88
2022/01/07 10:46:12;;;;;;;8.95;4.70;;;;;;;4.88;85.82;100983.50;5047013;28;20029;-82
2022/01/07 10:49:04;;;;;;;11.32;4.97;;;;;;;4.98;85.49;100969.88;5052302;28;20017;-81
2022/01/07 10:51:33;;;;;;;10.25;4.90;;;;;;;5.04;85.81;100963.94;5067036;28;20119;-88
2022/01/07 10:54:16;;;;;;;10.15;4.88;;;;;;;5.20;84.78;100980.38;5071616;28;20583;-86
2022/01/07 10:56:58;;;;;;;10.57;4.70;;;;;;;5.22;84.44;100968.38;5072373;28;20029;-87
2022/01/07 10:59:24;;;;;;;10.07;4.40;;;;;;;5.21;84.23;100966.66;5058150;28;20488;-87
2022/01/07 11:01:55;;;;;;;9.15;4.40;;;;;;;5.23;84.72;100959.81;5050465;28;20057;-90
2022/01/07 11:04:35;;;;;;;11.40;4.68;;;;;;;5.28;83.54;100949.56;5051675;28;20104;-85
2022/01/07 11:07:09;;;;;;;7.88;4.38;;;;;;;5.30;83.94;100959.00;5050865;28;20029;-86
2022/01/07 11:09:47;;;;;;;7.32;4.15;;;;;;;5.16;82.65;100938.31;5051473;28;20031;-85
2022/01/07 11:12:12;;;;;;;8.82;4.20;;;;;;;5.23;83.36;100949.53;5051390;28;20025;-85
2022/01/07 11:14:37;;;;;;;8.07;3.97;;;;;;;5.23;83.89;100962.41;5051496;28;20039;-85
2022/01/07 11:17:04;;;;;;;8.32;3.80;;;;;;;5.15;83.39;100953.75;5051995;28;20382;-86
2022/01/07 11:19:46;;;;;;;;;;;;;;;5.17;83.08;100959.78;5052638;28;20029;-84
2022/01/07 11:22:12;;;;;;;9.55;4.50;;;;;;;5.16;84.27;100951.19;5051562;28;19924;-85
2022/01/07 11:25:01;;;;;;;9.10;4.05;;;;;;;5.18;83.98;100962.34;5052474;28;20033;-81
2022/01/07 11:27:28;;;;;;;11.57;4.40;;;;;;;5.14;84.14;100960.59;5052166;28;20123;-79
2022/01/07 11:29:59;;;;;;;8.45;4.28;;;;;;;5.17;83.92;100957.22;5052716;28;20104;-86
2022/01/07 11:32:25;;;;;;;9.38;4.40;;;;;;;5.12;84.04;100961.44;5056033;28;20103;-85
2022/01/07 11:34:50;;;;;;;10.80;4.47;;;;;;;5.16;82.86;100964.06;5055413;28;20056;-84
2022/01/07 11:37:36;;;;;;;10.27;4.20;;;;;;;5.13;83.32;100961.44;5054941;28;20118;-84
2022/01/07 11:40:03;;;;;;;9.03;3.77;;;;;;;5.12;83.29;100961.44;5055536;28;20394;-83
2022/01/07 11:42:42;;;;;;;9.02;3.97;;;;;;;5.16;83.83;100961.47;5054408;28;20619;-87
2022/01/07 11:45:29;;;;;;;7.20;3.70;;;;;;;5.19;83.96;100955.47;5055244;28;20032;-80
2022/01/07 11:47:55;;;;;;;6.43;3.50;;;;;;;5.20;84.19;100962.34;5055576;28;20029;-88
2022/01/07 11:50:22;;;;;;;7.45;3.60;;;;;;;5.29;83.75;100959.88;5059719;28;20027;-88
2022/01/07 11:52:58;;;;;;;;;;;;;;;5.28;83.74;100957.28;5075708;28;20020;-87
2022/01/07 11:55:41;;;;;;;6.55;3.80;;;;;;;5.25;83.46;100953.00;5075522;28;20353;-88
2022/01/07 11:58:10;;;;;;;6.95;3.47;;;;;;;5.30;83.28;100945.28;5074769;28;20048;-86
2022/01/07 12:01:01;;;;;;;7.50;3.50;;;;;;;5.37;82.52;100952.22;5075564;28;20035;-87
2022/01/07 12:03:40;;;;;;;6.07;3.42;;;;;;;5.33;83.67;100956.47;5075470;28;20466;-88
2022/01/07 12:06:24;;;;;;;7.63;3.20;;;;;;;5.35;83.74;100959.94;5075809;28;20028;-91
2022/01/07 12:08:58;;;;;;;6.07;2.95;;;;;;;5.36;83.61;100960.78;5075369;28;20028;-87